D/T METAR WX W/DIR W/SPE G/SPE TEMP DEWP
19/02/20 20:30 EIWF 192030Z 25019G29KT 220V280 1600 DZ OVC002 09/08 Q1007 R21/2///// DZ WSW (250°) 21.9mph 33.4mph 9°C 8°C
19/02/20 20:00 EIWF 192000Z 25018G29KT 210V290 3000 -RA OVC002 09/08 Q1007 REDZ R21/2///// -RA WSW (250°) 20.7mph 33.4mph 9°C 8°C
19/02/20 19:30 EIWF 191930Z 25017G30KT 220V300 3100 DZ OVC003 09/09 Q1008 R21/2///// DZ WSW (250°) 19.6mph 34.5mph 9°C 9°C
19/02/20 19:00 EIWF 191900Z 25017KT 210V290 6000 DZ OVC003 09/09 Q1008 R21/2///// DZ WSW (250°) 19.6mph 9°C 9°C
19/02/20 18:30 EIWF 191830Z 25016G26KT 210V300 6000 OVC005 09/08 Q1008 R21/2///// WSW (250°) 18.4mph 29.9mph 9°C 8°C
19/02/20 18:00 EIWF 191800Z 25019G29KT 210V290 8000 OVC006 09/08 Q1008 R21/2///// WSW (250°) 21.9mph 33.4mph 9°C 8°C
19/02/20 17:30 EIWF 191730Z 25023G39KT 190V280 8000 BKN007 09/08 Q1008 R21/2///// WSW (250°) 26.5mph 44.9mph 9°C 8°C
19/02/20 17:00 EIWF 191700Z 25018KT 220V290 8000 BKN009 09/08 Q1009 REDZ R21/2///// WSW (250°) 20.7mph 9°C 8°C
19/02/20 16:30 EIWF 191630Z 25023G33KT 220V280 9999 BKN018 09/08 Q1009 R21/1///// WSW (250°) 26.5mph 38.0mph 9°C 8°C
19/02/20 16:00 EIWF 191600Z 25023G34KT 220V280 9000 SCT010 BKN020 09/08 Q1009 R21/1///// WSW (250°) 26.5mph 39.1mph 9°C 8°C
19/02/20 15:30 EIWF 191530Z 25015G26KT 200V300 9000 BKN009 09/08 Q1010 R21/1///// WSW (250°) 17.3mph 29.9mph 9°C 8°C
19/02/20 15:00 EIWF 191500Z 25014G24KT 220V300 9000 BKN010 09/08 Q1011 R21/1///// WSW (250°) 16.1mph 27.6mph 9°C 8°C
19/02/20 14:30 EIWF 191430Z 26017G27KT 220V300 7000 BKN010 09/08 Q1011 R21/1///// W (260°) 19.6mph 31.1mph 9°C 8°C
19/02/20 14:00 EIWF 191400Z 26018G30KT 220V300 5000 BR BKN009 BKN012 09/08 Q1011 R21/1///// BR W (260°) 20.7mph 34.5mph 9°C 8°C
19/02/20 13:30 EIWF 191330Z 25022G37KT 220V290 5000 BKN011 10/08 Q1011 R21/1///// WSW (250°) 25.3mph 42.6mph 10°C 8°C
19/02/20 13:00 EIWF 191300Z 25022G33KT 210V290 8000 BKN016 09/08 Q1012 R21/1///// WSW (250°) 25.3mph 38.0mph 9°C 8°C
19/02/20 12:30 EIWF 191230Z 24021G33KT 9999 BKN018 09/08 Q1012 R21/1///// WSW (240°) 24.2mph 38.0mph 9°C 8°C
19/02/20 12:00 EIWF 191200Z 25018KT 230V300 8000 SCT009 BKN026 09/08 Q1013 RERA R21/1///// WSW (250°) 20.7mph 9°C 8°C
19/02/20 11:30 EIWF 191130Z 25016KT 210V290 3000 +RA BKN008 BKN014 09/08 Q1014 R21/1///// +RA WSW (250°) 18.4mph 9°C 8°C
19/02/20 11:00 EIWF 191100Z 25019KT 200V280 5000 -RA BKN007 BKN019 08/07 Q1014 RERA R21/1///// -RA WSW (250°) 21.9mph 8°C 7°C
19/02/20 10:30 EIWF 191030Z 24021KT 210V280 3000 RA BKN005 08/08 Q1015 REDZ R21/1///// RA WSW (240°) 24.2mph 8°C 8°C
19/02/20 10:00 EIWF 191000Z 23021KT 4000 DZ SCT009 BKN011 09/08 Q1015 R21/1///// DZ SW (230°) 24.2mph 9°C 8°C
19/02/20 09:30 EIWF 190930Z 23016KT 8000 DZ SCT012 SCT025 BKN036 08/08 Q1016 RERA R21/1///// DZ SW (230°) 18.4mph 8°C 8°C
19/02/20 09:00 EIWF 190900Z 24017KT 7000 RA SCT015 08/08 Q1016 R21/1///// RA WSW (240°) 19.6mph 8°C 8°C
19/02/20 08:30 EIWF 190830Z 23019KT 9999 SCT008 BKN011 08/08 Q1016 REDZ R21/1///// SW (230°) 21.9mph 8°C 8°C
19/02/20 08:00 EIWF 190800Z 23018KT 7000 DZ SCT008 BKN011 08/07 Q1016 R21/1///// DZ SW (230°) 20.7mph 8°C 7°C
18/02/20 20:30 EIWF 182030Z 30009KT 270V330 9999 SCT030 03/01 Q1019 R03/1///// WNW (300°) 10.4mph 3°C 1°C
18/02/20 20:00 EIWF 182000Z 31014KT 270V350 9999 SCT030 04/01 Q1018 R21/1///// NW (310°) 16.1mph 4°C 1°C
18/02/20 19:30 EIWF 181930Z 30011KT 270V330 9999 SCT032 04/01 Q1018 R21/1///// WNW (300°) 12.7mph 4°C 1°C
18/02/20 19:00 EIWF 181900Z 30012G22KT 260V320 9999 SCT037 05/01 Q1017 R21/1///// WNW (300°) 13.8mph 25.3mph 5°C 1°C
18/02/20 18:30 EIWF 181830Z 29011KT 9999 SCT018 SCT030 04/01 Q1016 R21/1///// WNW (290°) 12.7mph 4°C 1°C
18/02/20 18:00 EIWF 181800Z 30010KT 270V350 9999 FEW029 SCT033 04/01 Q1016 R03/1///// WNW (300°) 11.5mph 4°C 1°C
18/02/20 17:30 EIWF 181730Z 33017G27KT 9999 FEW025 BKN030 05/01 Q1016 R03/1///// NNW (330°) 19.6mph 31.1mph 5°C 1°C
18/02/20 17:00 EIWF 181700Z 30014G24KT 260V340 9999 SCT020 SCT032 05/01 Q1015 R21/1///// WNW (300°) 16.1mph 27.6mph 5°C 1°C
18/02/20 16:30 EIWF 181630Z 30011KT 260V330 9999 SCT031 05/02 Q1015 RERA R21/1///// WNW (300°) 12.7mph 5°C 2°C
18/02/20 16:00 EIWF 181600Z 30014KT 270V340 9999 SCT018 SCT030 07/03 Q1015 R21/1///// WNW (300°) 16.1mph 7°C 3°C
18/02/20 15:30 EIWF 181530Z 29013KT 260V320 9999 VCSH SCT018CB SCT030 05/03 Q1014 RERA R21/1///// VCSH WNW (290°) 15.0mph 5°C 3°C
18/02/20 15:00 EIWF 181500Z 30030G44KT 8000 +RA SCT018CB BKN030 06/02 Q1014 R21/1///// +RA WNW (300°) 34.5mph 50.6mph 6°C 2°C
18/02/20 14:30 EIWF 181430Z 28017G28KT 9999 FEW018CB SCT032 08/04 Q1014 RERA R21/1///// W (280°) 19.6mph 32.2mph 8°C 4°C
18/02/20 14:00 EIWF 181400Z 27021G31KT 9999 SHRA FEW018CB SCT030 07/04 Q1014 RERA R21/1///// SHRA W (270°) 24.2mph 35.7mph 7°C 4°C
18/02/20 13:30 EIWF 181330Z 28018KT 9999 FEW018 SCT030 08/03 Q1014 R21/1///// W (280°) 20.7mph 8°C 3°C
18/02/20 13:00 EIWF 181300Z 28023G34KT 9999 FEW018 SCT029 08/05 Q1014 RERA R21/1///// W (280°) 26.5mph 39.1mph 8°C 5°C
18/02/20 12:30 EIWF 181230Z 26018KT 9999 FEW018 SCT028 08/05 Q1014 W (260°) 20.7mph 8°C 5°C
18/02/20 12:00 EIWF 181200Z 26020KT 9999 FEW018 SCT026 08/05 Q1015 W (260°) 23.0mph 8°C 5°C
18/02/20 11:30 EIWF 181130Z 25024G34KT 9999 FEW018 SCT025 08/05 Q1015 WSW (250°) 27.6mph 39.1mph 8°C 5°C
18/02/20 11:00 EIWF 181100Z 25019KT 9999 -RA FEW015 SCT025 08/05 Q1015 -RA WSW (250°) 21.9mph 8°C 5°C
18/02/20 10:30 EIWF 181030Z 25018KT 9999 FEW025 08/06 Q1015 WSW (250°) 20.7mph 8°C 6°C
18/02/20 10:00 EIWF 181000Z 25020KT 9999 FEW025 08/05 Q1015 WSW (250°) 23.0mph 8°C 5°C